sensor_id;sensor_type;location;lat;lon;timestamp;P1;durP1;ratioP1;P2;durP2;ratioP2
20375;SDS011;10347;51.828;6.466;2022-08-01T00:00:39;10.40;;;6.30;;
20375;SDS011;10347;51.828;6.466;2022-08-01T00:03:04;7.85;;;6.65;;
20375;SDS011;10347;51.828;6.466;2022-08-01T00:05:30;9.70;;;6.72;;
20375;SDS011;10347;51.828;6.466;2022-08-01T00:07:56;8.43;;;5.80;;
20375;SDS011;10347;51.828;6.466;2022-08-01T00:10:21;9.10;;;5.43;;
20375;SDS011;10347;51.828;6.466;2022-08-01T00:12:47;13.35;;;6.20;;
20375;SDS011;10347;51.828;6.466;2022-08-01T00:15:14;8.80;;;6.10;;
20375;SDS011;10347;51.828;6.466;2022-08-01T00:17:41;11.00;;;6.43;;
20375;SDS011;10347;51.828;6.466;2022-08-01T00:20:09;10.43;;;6.47;;
20375;SDS011;10347;51.828;6.466;2022-08-01T00:22:37;9.40;;;6.15;;
20375;SDS011;10347;51.828;6.466;2022-08-01T00:25:03;13.35;;;6.75;;
20375;SDS011;10347;51.828;6.466;2022-08-01T00:27:30;9.70;;;5.88;;
20375;SDS011;10347;51.828;6.466;2022-08-01T00:29:56;9.68;;;5.65;;
20375;SDS011;10347;51.828;6.466;2022-08-01T00:32:22;9.63;;;6.40;;
20375;SDS011;10347;51.828;6.466;2022-08-01T00:34:48;10.52;;;5.90;;
20375;SDS011;10347;51.828;6.466;2022-08-01T00:37:13;6.95;;;5.60;;
20375;SDS011;10347;51.828;6.466;2022-08-01T00:39:39;7.68;;;5.20;;
20375;SDS011;10347;51.828;6.466;2022-08-01T00:42:08;9.27;;;6.07;;
20375;SDS011;10347;51.828;6.466;2022-08-01T00:44:35;6.97;;;5.88;;
20375;SDS011;10347;51.828;6.466;2022-08-01T00:47:01;8.35;;;5.70;;
20375;SDS011;10347;51.828;6.466;2022-08-01T00:49:27;8.13;;;5.78;;
20375;SDS011;10347;51.828;6.466;2022-08-01T00:51:54;9.38;;;6.35;;
20375;SDS011;10347;51.828;6.466;2022-08-01T00:54:20;5.78;;;5.15;;
20375;SDS011;10347;51.828;6.466;2022-08-01T00:56:45;6.32;;;5.70;;
20375;SDS011;10347;51.828;6.466;2022-08-01T00:59:11;6.30;;;5.63;;
20375;SDS011;10347;51.828;6.466;2022-08-01T01:01:38;7.40;;;5.10;;
20375;SDS011;10347;51.828;6.466;2022-08-01T01:04:04;6.05;;;5.25;;
20375;SDS011;10347;51.828;6.466;2022-08-01T01:12:01;10.35;;;6.70;;
20375;SDS011;10347;51.828;6.466;2022-08-01T01:17:48;7.03;;;6.00;;
20375;SDS011;10347;51.828;6.466;2022-08-01T01:20:23;6.57;;;5.88;;
20375;SDS011;10347;51.828;6.466;2022-08-01T01:22:55;12.77;;;7.88;;
20375;SDS011;10347;51.828;6.466;2022-08-01T01:31:08;7.63;;;6.13;;
20375;SDS011;10347;51.828;6.466;2022-08-01T01:33:37;7.82;;;6.63;;
20375;SDS011;10347;51.828;6.466;2022-08-01T01:36:05;9.70;;;7.15;;
20375;SDS011;10347;51.828;6.466;2022-08-01T01:38:39;8.00;;;6.43;;
20375;SDS011;10347;51.828;6.466;2022-08-01T01:41:08;7.78;;;6.72;;
20375;SDS011;10347;51.828;6.466;2022-08-01T01:43:35;7.40;;;6.13;;
20375;SDS011;10347;51.828;6.466;2022-08-01T01:46:02;7.68;;;6.53;;
20375;SDS011;10347;51.828;6.466;2022-08-01T01:48:30;7.35;;;6.20;;
20375;SDS011;10347;51.828;6.466;2022-08-01T01:50:57;9.15;;;6.60;;
20375;SDS011;10347;51.828;6.466;2022-08-01T01:53:24;8.68;;;6.68;;
20375;SDS011;10347;51.828;6.466;2022-08-01T01:55:53;8.18;;;6.25;;
20375;SDS011;10347;51.828;6.466;2022-08-01T01:58:21;9.38;;;7.53;;
20375;SDS011;10347;51.828;6.466;2022-08-01T02:00:49;10.68;;;8.48;;
20375;SDS011;10347;51.828;6.466;2022-08-01T02:03:18;10.48;;;7.55;;
20375;SDS011;10347;51.828;6.466;2022-08-01T02:05:45;12.07;;;8.50;;
20375;SDS011;10347;51.828;6.466;2022-08-01T02:08:13;9.15;;;7.60;;
20375;SDS011;10347;51.828;6.466;2022-08-01T02:10:40;9.93;;;7.53;;
20375;SDS011;10347;51.828;6.466;2022-08-01T02:13:27;8.80;;;7.28;;
20375;SDS011;10347;51.828;6.466;2022-08-01T02:15:54;9.88;;;8.00;;
20375;SDS011;10347;51.828;6.466;2022-08-01T02:18:19;7.05;;;6.22;;
20375;SDS011;10347;51.828;6.466;2022-08-01T02:20:45;8.75;;;6.72;;
20375;SDS011;10347;51.828;6.466;2022-08-01T02:23:11;8.35;;;6.72;;
20375;SDS011;10347;51.828;6.466;2022-08-01T02:28:17;7.25;;;6.20;;
20375;SDS011;10347;51.828;6.466;2022-08-01T02:30:53;6.68;;;5.22;;
20375;SDS011;10347;51.828;6.466;2022-08-01T02:33:24;7.22;;;6.13;;
20375;SDS011;10347;51.828;6.466;2022-08-01T02:35:57;5.80;;;5.25;;
20375;SDS011;10347;51.828;6.466;2022-08-01T02:38:26;7.00;;;5.22;;
20375;SDS011;10347;51.828;6.466;2022-08-01T02:40:54;8.10;;;5.65;;
20375;SDS011;10347;51.828;6.466;2022-08-01T02:43:23;5.70;;;5.13;;
20375;SDS011;10347;51.828;6.466;2022-08-01T02:45:52;6.50;;;5.20;;
20375;SDS011;10347;51.828;6.466;2022-08-01T02:48:21;6.18;;;5.50;;
20375;SDS011;10347;51.828;6.466;2022-08-01T02:50:51;6.15;;;5.55;;
20375;SDS011;10347;51.828;6.466;2022-08-01T02:53:20;6.60;;;5.90;;
20375;SDS011;10347;51.828;6.466;2022-08-01T02:55:48;6.47;;;5.65;;
20375;SDS011;10347;51.828;6.466;2022-08-01T02:58:16;6.00;;;5.40;;
20375;SDS011;10347;51.828;6.466;2022-08-01T03:00:43;7.15;;;6.03;;
20375;SDS011;10347;51.828;6.466;2022-08-01T03:03:10;6.82;;;6.10;;
20375;SDS011;10347;51.828;6.466;2022-08-01T03:05:37;8.85;;;6.53;;
20375;SDS011;10347;51.828;6.466;2022-08-01T03:08:07;8.27;;;6.38;;
20375;SDS011;10347;51.828;6.466;2022-08-01T03:10:36;9.60;;;6.68;;
20375;SDS011;10347;51.828;6.466;2022-08-01T03:13:04;7.20;;;5.60;;
20375;SDS011;10347;51.828;6.466;2022-08-01T03:15:31;8.82;;;6.53;;
20375;SDS011;10347;51.828;6.466;2022-08-01T03:18:00;7.53;;;6.60;;
20375;SDS011;10347;51.828;6.466;2022-08-01T03:20:29;8.48;;;6.95;;
20375;SDS011;10347;51.828;6.466;2022-08-01T03:22:57;8.20;;;7.10;;
20375;SDS011;10347;51.828;6.466;2022-08-01T03:25:28;7.55;;;6.47;;
20375;SDS011;10347;51.828;6.466;2022-08-01T03:27:56;8.52;;;7.25;;
20375;SDS011;10347;51.828;6.466;2022-08-01T03:30:26;8.75;;;7.40;;
20375;SDS011;10347;51.828;6.466;2022-08-01T03:32:52;9.57;;;7.00;;
20375;SDS011;10347;51.828;6.466;2022-08-01T03:35:19;11.88;;;8.13;;
20375;SDS011;10347;51.828;6.466;2022-08-01T03:37:49;7.22;;;6.53;;
20375;SDS011;10347;51.828;6.466;2022-08-01T03:40:20;8.13;;;6.93;;
20375;SDS011;10347;51.828;6.466;2022-08-01T03:42:52;10.18;;;7.10;;
20375;SDS011;10347;51.828;6.466;2022-08-01T03:45:23;11.15;;;8.15;;
20375;SDS011;10347;51.828;6.466;2022-08-01T03:47:53;10.75;;;7.75;;
20375;SDS011;10347;51.828;6.466;2022-08-01T03:50:24;8.95;;;7.43;;
20375;SDS011;10347;51.828;6.466;2022-08-01T03:52:51;9.68;;;7.90;;
20375;SDS011;10347;51.828;6.466;2022-08-01T03:55:19;11.55;;;9.15;;
20375;SDS011;10347;51.828;6.466;2022-08-01T03:57:46;11.88;;;8.95;;
20375;SDS011;10347;51.828;6.466;2022-08-01T04:00:13;10.63;;;8.40;;
20375;SDS011;10347;51.828;6.466;2022-08-01T04:02:43;10.23;;;7.78;;
20375;SDS011;10347;51.828;6.466;2022-08-01T04:05:13;10.40;;;7.97;;
20375;SDS011;10347;51.828;6.466;2022-08-01T04:07:40;10.18;;;8.02;;
20375;SDS011;10347;51.828;6.466;2022-08-01T04:10:10;9.30;;;7.72;;
20375;SDS011;10347;51.828;6.466;2022-08-01T04:12:36;9.90;;;7.97;;
20375;SDS011;10347;51.828;6.466;2022-08-01T04:15:02;11.00;;;8.40;;
20375;SDS011;10347;51.828;6.466;2022-08-01T04:17:29;10.70;;;7.70;;
20375;SDS011;10347;51.828;6.466;2022-08-01T04:19:54;11.15;;;9.02;;
20375;SDS011;10347;51.828;6.466;2022-08-01T04:22:20;9.88;;;8.23;;
20375;SDS011;10347;51.828;6.466;2022-08-01T04:24:49;12.90;;;9.85;;
20375;SDS011;10347;51.828;6.466;2022-08-01T04:27:19;10.25;;;8.10;;
20375;SDS011;10347;51.828;6.466;2022-08-01T04:29:49;13.95;;;8.90;;
20375;SDS011;10347;51.828;6.466;2022-08-01T04:32:19;9.43;;;7.68;;
20375;SDS011;10347;51.828;6.466;2022-08-01T04:34:47;10.82;;;8.13;;
20375;SDS011;10347;51.828;6.466;2022-08-01T04:37:14;11.48;;;7.80;;
20375;SDS011;10347;51.828;6.466;2022-08-01T04:39:42;10.50;;;7.45;;
20375;SDS011;10347;51.828;6.466;2022-08-01T04:42:09;9.52;;;7.30;;
20375;SDS011;10347;51.828;6.466;2022-08-01T04:44:36;8.52;;;6.30;;
20375;SDS011;10347;51.828;6.466;2022-08-01T04:47:02;7.68;;;5.97;;
20375;SDS011;10347;51.828;6.466;2022-08-01T04:49:32;5.55;;;4.80;;
20375;SDS011;10347;51.828;6.466;2022-08-01T04:51:59;8.63;;;5.60;;
20375;SDS011;10347;51.828;6.466;2022-08-01T04:54:29;6.35;;;4.63;;
20375;SDS011;10347;51.828;6.466;2022-08-01T04:56:57;4.68;;;4.25;;
20375;SDS011;10347;51.828;6.466;2022-08-01T04:59:25;4.65;;;4.20;;
20375;SDS011;10347;51.828;6.466;2022-08-01T05:02:07;5.43;;;4.20;;
20375;SDS011;10347;51.828;6.466;2022-08-01T05:04:38;6.18;;;4.60;;
20375;SDS011;10347;51.828;6.466;2022-08-01T05:07:05;5.45;;;4.20;;
20375;SDS011;10347;51.828;6.466;2022-08-01T05:09:31;6.68;;;4.75;;
20375;SDS011;10347;51.828;6.466;2022-08-01T05:11:58;4.75;;;4.32;;
20375;SDS011;10347;51.828;6.466;2022-08-01T05:14:25;7.80;;;5.50;;
20375;SDS011;10347;51.828;6.466;2022-08-01T05:16:51;6.88;;;5.00;;
20375;SDS011;10347;51.828;6.466;2022-08-01T05:19:17;7.57;;;5.78;;
20375;SDS011;10347;51.828;6.466;2022-08-01T05:21:42;6.90;;;5.45;;
20375;SDS011;10347;51.828;6.466;2022-08-01T05:24:08;8.68;;;6.05;;
20375;SDS011;10347;51.828;6.466;2022-08-01T05:26:33;6.07;;;5.20;;
20375;SDS011;10347;51.828;6.466;2022-08-01T05:28:59;5.93;;;5.18;;
20375;SDS011;10347;51.828;6.466;2022-08-01T05:31:25;6.85;;;5.63;;
20375;SDS011;10347;51.828;6.466;2022-08-01T05:33:51;6.85;;;5.40;;
20375;SDS011;10347;51.828;6.466;2022-08-01T05:36:16;6.47;;;5.45;;
20375;SDS011;10347;51.828;6.466;2022-08-01T05:38:42;6.90;;;6.03;;
20375;SDS011;10347;51.828;6.466;2022-08-01T05:41:08;7.75;;;5.60;;
20375;SDS011;10347;51.828;6.466;2022-08-01T05:43:34;6.75;;;5.65;;
20375;SDS011;10347;51.828;6.466;2022-08-01T05:46:00;7.53;;;5.43;;
20375;SDS011;10347;51.828;6.466;2022-08-01T05:48:26;6.50;;;5.13;;
20375;SDS011;10347;51.828;6.466;2022-08-01T05:50:52;5.97;;;5.30;;
20375;SDS011;10347;51.828;6.466;2022-08-01T05:53:19;7.05;;;5.10;;
20375;SDS011;10347;51.828;6.466;2022-08-01T05:55:44;8.60;;;5.53;;
20375;SDS011;10347;51.828;6.466;2022-08-01T05:58:10;6.68;;;5.22;;
20375;SDS011;10347;51.828;6.466;2022-08-01T06:00:35;8.40;;;5.50;;
20375;SDS011;10347;51.828;6.466;2022-08-01T06:03:01;6.45;;;5.05;;
20375;SDS011;10347;51.828;6.466;2022-08-01T06:05:27;5.00;;;4.35;;
20375;SDS011;10347;51.828;6.466;2022-08-01T06:07:53;6.03;;;3.83;;
20375;SDS011;10347;51.828;6.466;2022-08-01T06:10:18;5.50;;;3.88;;
20375;SDS011;10347;51.828;6.466;2022-08-01T06:12:44;4.20;;;3.67;;
20375;SDS011;10347;51.828;6.466;2022-08-01T06:15:10;4.03;;;3.72;;
20375;SDS011;10347;51.828;6.466;2022-08-01T06:17:36;3.67;;;3.35;;
20375;SDS011;10347;51.828;6.466;2022-08-01T06:20:02;4.45;;;3.78;;
20375;SDS011;10347;51.828;6.466;2022-08-01T06:22:29;4.05;;;3.55;;
20375;SDS011;10347;51.828;6.466;2022-08-01T06:24:54;5.32;;;3.85;;
20375;SDS011;10347;51.828;6.466;2022-08-01T06:27:20;5.68;;;3.83;;
20375;SDS011;10347;51.828;6.466;2022-08-01T06:29:46;4.85;;;4.22;;
20375;SDS011;10347;51.828;6.466;2022-08-01T06:32:12;4.90;;;4.00;;
20375;SDS011;10347;51.828;6.466;2022-08-01T06:34:37;3.55;;;3.25;;
20375;SDS011;10347;51.828;6.466;2022-08-01T06:37:03;3.60;;;3.30;;
20375;SDS011;10347;51.828;6.466;2022-08-01T06:39:29;6.35;;;3.80;;
20375;SDS011;10347;51.828;6.466;2022-08-01T06:41:54;3.80;;;3.42;;
20375;SDS011;10347;51.828;6.466;2022-08-01T06:44:20;4.60;;;3.55;;
20375;SDS011;10347;51.828;6.466;2022-08-01T06:46:45;4.00;;;3.47;;
20375;SDS011;10347;51.828;6.466;2022-08-01T06:49:11;3.60;;;3.28;;
20375;SDS011;10347;51.828;6.466;2022-08-01T06:51:36;2.97;;;2.75;;
20375;SDS011;10347;51.828;6.466;2022-08-01T06:54:02;4.35;;;3.28;;
20375;SDS011;10347;51.828;6.466;2022-08-01T06:56:28;3.67;;;3.33;;
20375;SDS011;10347;51.828;6.466;2022-08-01T06:58:53;4.43;;;3.03;;
20375;SDS011;10347;51.828;6.466;2022-08-01T07:01:25;3.63;;;3.30;;
20375;SDS011;10347;51.828;6.466;2022-08-01T07:03:52;2.92;;;2.70;;
20375;SDS011;10347;51.828;6.466;2022-08-01T07:06:17;3.05;;;2.78;;
20375;SDS011;10347;51.828;6.466;2022-08-01T07:08:43;2.45;;;2.25;;
20375;SDS011;10347;51.828;6.466;2022-08-01T07:11:08;3.17;;;2.47;;
20375;SDS011;10347;51.828;6.466;2022-08-01T07:13:34;2.50;;;2.30;;
20375;SDS011;10347;51.828;6.466;2022-08-01T07:15:59;2.22;;;2.10;;
20375;SDS011;10347;51.828;6.466;2022-08-01T07:18:25;2.95;;;2.65;;
20375;SDS011;10347;51.828;6.466;2022-08-01T07:20:51;2.20;;;2.10;;
20375;SDS011;10347;51.828;6.466;2022-08-01T07:23:16;2.30;;;2.20;;
20375;SDS011;10347;51.828;6.466;2022-08-01T07:25:42;2.10;;;2.00;;
20375;SDS011;10347;51.828;6.466;2022-08-01T07:28:08;2.25;;;2.00;;
20375;SDS011;10347;51.828;6.466;2022-08-01T07:30:33;1.27;;;1.27;;
20375;SDS011;10347;51.828;6.466;2022-08-01T07:32:59;1.00;;;1.00;;
20375;SDS011;10347;51.828;6.466;2022-08-01T07:35:25;0.90;;;0.90;;
20375;SDS011;10347;51.828;6.466;2022-08-01T07:37:51;0.82;;;0.82;;
20375;SDS011;10347;51.828;6.466;2022-08-01T07:40:18;0.50;;;0.50;;
20375;SDS011;10347;51.828;6.466;2022-08-01T07:42:44;0.57;;;0.57;;
20375;SDS011;10347;51.828;6.466;2022-08-01T07:45:10;1.45;;;1.10;;
20375;SDS011;10347;51.828;6.466;2022-08-01T07:47:37;1.42;;;1.33;;
20375;SDS011;10347;51.828;6.466;2022-08-01T07:50:03;1.05;;;1.05;;
20375;SDS011;10347;51.828;6.466;2022-08-01T07:52:30;1.33;;;1.23;;
20375;SDS011;10347;51.828;6.466;2022-08-01T07:54:56;2.42;;;1.60;;
20375;SDS011;10347;51.828;6.466;2022-08-01T07:57:23;2.20;;;1.98;;
20375;SDS011;10347;51.828;6.466;2022-08-01T07:59:49;1.60;;;1.10;;
20375;SDS011;10347;51.828;6.466;2022-08-01T08:02:15;1.00;;;1.00;;
20375;SDS011;10347;51.828;6.466;2022-08-01T08:04:41;1.10;;;1.10;;
20375;SDS011;10347;51.828;6.466;2022-08-01T08:07:06;2.40;;;1.67;;
20375;SDS011;10347;51.828;6.466;2022-08-01T08:09:32;1.50;;;1.50;;
20375;SDS011;10347;51.828;6.466;2022-08-01T08:11:58;0.95;;;0.95;;
20375;SDS011;10347;51.828;6.466;2022-08-01T08:14:23;0.82;;;0.82;;
20375;SDS011;10347;51.828;6.466;2022-08-01T08:16:49;0.70;;;0.70;;
20375;SDS011;10347;51.828;6.466;2022-08-01T08:19:15;0.77;;;0.60;;
20375;SDS011;10347;51.828;6.466;2022-08-01T08:21:41;0.50;;;0.50;;
20375;SDS011;10347;51.828;6.466;2022-08-01T08:24:07;0.57;;;0.57;;
20375;SDS011;10347;51.828;6.466;2022-08-01T08:26:47;0.60;;;0.60;;
20375;SDS011;10347;51.828;6.466;2022-08-01T08:29:14;0.45;;;0.45;;
20375;SDS011;10347;51.828;6.466;2022-08-01T08:31:40;0.60;;;0.60;;
20375;SDS011;10347;51.828;6.466;2022-08-01T08:34:06;1.00;;;0.70;;
20375;SDS011;10347;51.828;6.466;2022-08-01T08:36:34;0.60;;;0.60;;
20375;SDS011;10347;51.828;6.466;2022-08-01T08:39:00;1.08;;;1.00;;
20375;SDS011;10347;51.828;6.466;2022-08-01T08:41:26;0.70;;;0.60;;
20375;SDS011;10347;51.828;6.466;2022-08-01T08:43:52;2.17;;;0.70;;
20375;SDS011;10347;51.828;6.466;2022-08-01T08:46:18;0.95;;;0.85;;
20375;SDS011;10347;51.828;6.466;2022-08-01T08:48:45;1.02;;;0.90;;
20375;SDS011;10347;51.828;6.466;2022-08-01T08:51:11;0.80;;;0.80;;
20375;SDS011;10347;51.828;6.466;2022-08-01T08:53:41;0.80;;;0.80;;
20375;SDS011;10347;51.828;6.466;2022-08-01T08:56:09;0.98;;;0.98;;
20375;SDS011;10347;51.828;6.466;2022-08-01T08:58:37;0.90;;;0.90;;
20375;SDS011;10347;51.828;6.466;2022-08-01T09:01:07;0.85;;;0.85;;
20375;SDS011;10347;51.828;6.466;2022-08-01T09:03:36;0.80;;;0.80;;
20375;SDS011;10347;51.828;6.466;2022-08-01T09:06:02;0.98;;;0.98;;
20375;SDS011;10347;51.828;6.466;2022-08-01T09:08:28;0.90;;;0.90;;
20375;SDS011;10347;51.828;6.466;2022-08-01T09:10:53;1.50;;;1.40;;
20375;SDS011;10347;51.828;6.466;2022-08-01T09:13:19;2.15;;;0.90;;
20375;SDS011;10347;51.828;6.466;2022-08-01T09:15:49;2.35;;;1.10;;
20375;SDS011;10347;51.828;6.466;2022-08-01T09:21:18;0.95;;;0.95;;
20375;SDS011;10347;51.828;6.466;2022-08-01T09:23:46;1.70;;;1.27;;
20375;SDS011;10347;51.828;6.466;2022-08-01T09:26:20;1.50;;;1.40;;
20375;SDS011;10347;51.828;6.466;2022-08-01T09:28:52;1.40;;;1.30;;
20375;SDS011;10347;51.828;6.466;2022-08-01T09:31:18;1.63;;;1.30;;
20375;SDS011;10347;51.828;6.466;2022-08-01T09:33:57;2.00;;;1.30;;
20375;SDS011;10347;51.828;6.466;2022-08-01T09:36:50;1.30;;;1.20;;
20375;SDS011;10347;51.828;6.466;2022-08-01T09:39:19;1.40;;;1.40;;
20375;SDS011;10347;51.828;6.466;2022-08-01T09:41:47;1.77;;;1.13;;
20375;SDS011;10347;51.828;6.466;2022-08-01T09:44:13;2.05;;;1.25;;
20375;SDS011;10347;51.828;6.466;2022-08-01T09:46:48;4.22;;;1.63;;
20375;SDS011;10347;51.828;6.466;2022-08-01T09:49:28;3.78;;;1.98;;
20375;SDS011;10347;51.828;6.466;2022-08-01T09:51:55;3.10;;;2.17;;
20375;SDS011;10347;51.828;6.466;2022-08-01T09:54:29;6.13;;;1.98;;
20375;SDS011;10347;51.828;6.466;2022-08-01T09:57:07;2.88;;;1.80;;
20375;SDS011;10347;51.828;6.466;2022-08-01T09:59:34;4.55;;;2.17;;
20375;SDS011;10347;51.828;6.466;2022-08-01T10:02:06;2.67;;;1.80;;
20375;SDS011;10347;51.828;6.466;2022-08-01T10:04:49;3.00;;;1.70;;
20375;SDS011;10347;51.828;6.466;2022-08-01T10:07:16;2.45;;;1.50;;
20375;SDS011;10347;51.828;6.466;2022-08-01T10:09:45;1.40;;;1.20;;
20375;SDS011;10347;51.828;6.466;2022-08-01T10:12:13;1.65;;;1.30;;
20375;SDS011;10347;51.828;6.466;2022-08-01T10:14:40;1.85;;;1.20;;
20375;SDS011;10347;51.828;6.466;2022-08-01T10:17:07;1.20;;;1.20;;
20375;SDS011;10347;51.828;6.466;2022-08-01T10:19:35;2.55;;;1.30;;
20375;SDS011;10347;51.828;6.466;2022-08-01T10:22:03;4.75;;;1.73;;
20375;SDS011;10347;51.828;6.466;2022-08-01T10:24:32;2.90;;;1.67;;
20375;SDS011;10347;51.828;6.466;2022-08-01T10:27:03;2.97;;;1.63;;
20375;SDS011;10347;51.828;6.466;2022-08-01T10:29:31;4.80;;;2.30;;
20375;SDS011;10347;51.828;6.466;2022-08-01T10:32:04;4.07;;;2.25;;
20375;SDS011;10347;51.828;6.466;2022-08-01T10:34:31;3.10;;;1.83;;
20375;SDS011;10347;51.828;6.466;2022-08-01T10:36:58;2.42;;;1.80;;
20375;SDS011;10347;51.828;6.466;2022-08-01T10:39:25;1.58;;;1.48;;
20375;SDS011;10347;51.828;6.466;2022-08-01T10:41:53;3.28;;;1.58;;
20375;SDS011;10347;51.828;6.466;2022-08-01T10:44:20;3.33;;;1.60;;
20375;SDS011;10347;51.828;6.466;2022-08-01T10:46:46;1.45;;;1.35;;
20375;SDS011;10347;51.828;6.466;2022-08-01T10:49:17;2.33;;;1.55;;
20375;SDS011;10347;51.828;6.466;2022-08-01T10:51:46;4.07;;;1.63;;
20375;SDS011;10347;51.828;6.466;2022-08-01T10:54:12;2.22;;;1.45;;
20375;SDS011;10347;51.828;6.466;2022-08-01T10:56:39;1.85;;;1.38;;
20375;SDS011;10347;51.828;6.466;2022-08-01T10:59:07;2.97;;;1.38;;
20375;SDS011;10347;51.828;6.466;2022-08-01T11:01:33;5.60;;;2.30;;
20375;SDS011;10347;51.828;6.466;2022-08-01T11:06:42;4.72;;;2.10;;
20375;SDS011;10347;51.828;6.466;2022-08-01T11:09:21;3.92;;;2.10;;
20375;SDS011;10347;51.828;6.466;2022-08-01T11:14:30;2.95;;;1.80;;
20375;SDS011;10347;51.828;6.466;2022-08-01T11:16:56;2.22;;;1.88;;
20375;SDS011;10347;51.828;6.466;2022-08-01T11:20:13;4.40;;;1.85;;
20375;SDS011;10347;51.828;6.466;2022-08-01T11:30:49;2.20;;;2.00;;
20375;SDS011;10347;51.828;6.466;2022-08-01T11:33:17;1.80;;;1.70;;
20375;SDS011;10347;51.828;6.466;2022-08-01T11:38:38;4.47;;;2.75;;
20375;SDS011;10347;51.828;6.466;2022-08-01T11:49:27;1.65;;;1.55;;
20375;SDS011;10347;51.828;6.466;2022-08-01T11:52:06;4.70;;;2.60;;
20375;SDS011;10347;51.828;6.466;2022-08-01T11:54:35;3.97;;;2.42;;
20375;SDS011;10347;51.828;6.466;2022-08-01T11:57:12;2.58;;;2.30;;
20375;SDS011;10347;51.828;6.466;2022-08-01T11:59:44;1.90;;;1.77;;
20375;SDS011;10347;51.828;6.466;2022-08-01T12:02:31;1.80;;;1.65;;
20375;SDS011;10347;51.828;6.466;2022-08-01T12:05:08;1.70;;;1.55;;
20375;SDS011;10347;51.828;6.466;2022-08-01T12:07:37;3.33;;;2.05;;
20375;SDS011;10347;51.828;6.466;2022-08-01T12:12:31;2.30;;;2.05;;
20375;SDS011;10347;51.828;6.466;2022-08-01T12:15:01;4.22;;;2.78;;
20375;SDS011;10347;51.828;6.466;2022-08-01T12:17:35;3.05;;;2.25;;
20375;SDS011;10347;51.828;6.466;2022-08-01T12:20:07;2.50;;;2.30;;
20375;SDS011;10347;51.828;6.466;2022-08-01T12:22:34;3.78;;;2.20;;
20375;SDS011;10347;51.828;6.466;2022-08-01T12:25:05;3.83;;;2.30;;
20375;SDS011;10347;51.828;6.466;2022-08-01T12:27:32;2.83;;;2.40;;
20375;SDS011;10347;51.828;6.466;2022-08-01T12:29:58;2.50;;;2.30;;
20375;SDS011;10347;51.828;6.466;2022-08-01T12:32:28;2.65;;;2.13;;
20375;SDS011;10347;51.828;6.466;2022-08-01T12:35:05;3.45;;;2.42;;
20375;SDS011;10347;51.828;6.466;2022-08-01T12:37:40;3.20;;;2.67;;
20375;SDS011;10347;51.828;6.466;2022-08-01T12:40:09;2.95;;;2.33;;
20375;SDS011;10347;51.828;6.466;2022-08-01T12:42:42;4.32;;;2.20;;
20375;SDS011;10347;51.828;6.466;2022-08-01T12:45:11;3.33;;;2.70;;
20375;SDS011;10347;51.828;6.466;2022-08-01T12:47:39;4.90;;;2.53;;
20375;SDS011;10347;51.828;6.466;2022-08-01T12:50:05;2.38;;;1.70;;
20375;SDS011;10347;51.828;6.466;2022-08-01T12:52:42;2.28;;;1.60;;
20375;SDS011;10347;51.828;6.466;2022-08-01T12:57:39;2.08;;;1.65;;
20375;SDS011;10347;51.828;6.466;2022-08-01T13:02:37;2.95;;;2.00;;
20375;SDS011;10347;51.828;6.466;2022-08-01T13:05:04;3.50;;;1.70;;
20375;SDS011;10347;51.828;6.466;2022-08-01T13:07:44;2.53;;;2.05;;
20375;SDS011;10347;51.828;6.466;2022-08-01T13:10:13;1.95;;;1.33;;
20375;SDS011;10347;51.828;6.466;2022-08-01T13:12:40;1.85;;;1.30;;
20375;SDS011;10347;51.828;6.466;2022-08-01T13:15:22;1.15;;;1.00;;
20375;SDS011;10347;51.828;6.466;2022-08-01T13:17:53;3.08;;;1.20;;
20375;SDS011;10347;51.828;6.466;2022-08-01T13:20:27;1.48;;;1.00;;
20375;SDS011;10347;51.828;6.466;2022-08-01T13:23:10;1.10;;;1.00;;
20375;SDS011;10347;51.828;6.466;2022-08-01T13:25:46;2.03;;;1.40;;
20375;SDS011;10347;51.828;6.466;2022-08-01T13:28:19;4.93;;;1.65;;
20375;SDS011;10347;51.828;6.466;2022-08-01T13:31:06;3.25;;;1.27;;
20375;SDS011;10347;51.828;6.466;2022-08-01T13:33:47;1.33;;;1.15;;
20375;SDS011;10347;51.828;6.466;2022-08-01T13:36:13;1.30;;;1.20;;
20375;SDS011;10347;51.828;6.466;2022-08-01T13:38:40;1.73;;;1.05;;
20375;SDS011;10347;51.828;6.466;2022-08-01T13:41:25;4.70;;;1.38;;
20375;SDS011;10347;51.828;6.466;2022-08-01T13:43:51;6.63;;;1.70;;
20375;SDS011;10347;51.828;6.466;2022-08-01T13:46:17;3.05;;;1.33;;
20375;SDS011;10347;51.828;6.466;2022-08-01T13:48:43;3.40;;;1.70;;
20375;SDS011;10347;51.828;6.466;2022-08-01T13:51:09;6.32;;;1.55;;
20375;SDS011;10347;51.828;6.466;2022-08-01T13:53:35;4.32;;;2.10;;
20375;SDS011;10347;51.828;6.466;2022-08-01T13:56:01;3.35;;;1.80;;
20375;SDS011;10347;51.828;6.466;2022-08-01T13:58:26;3.20;;;1.52;;
20375;SDS011;10347;51.828;6.466;2022-08-01T14:00:53;2.63;;;1.45;;
20375;SDS011;10347;51.828;6.466;2022-08-01T14:03:19;2.00;;;1.55;;
20375;SDS011;10347;51.828;6.466;2022-08-01T14:05:45;4.13;;;1.75;;
20375;SDS011;10347;51.828;6.466;2022-08-01T14:08:11;2.63;;;1.70;;
20375;SDS011;10347;51.828;6.466;2022-08-01T14:10:36;4.65;;;2.20;;
20375;SDS011;10347;51.828;6.466;2022-08-01T14:13:02;3.55;;;1.85;;
20375;SDS011;10347;51.828;6.466;2022-08-01T14:15:28;2.15;;;1.77;;
20375;SDS011;10347;51.828;6.466;2022-08-01T14:17:55;3.30;;;1.60;;
20375;SDS011;10347;51.828;6.466;2022-08-01T14:20:21;5.28;;;1.60;;
20375;SDS011;10347;51.828;6.466;2022-08-01T14:22:46;2.78;;;1.30;;
20375;SDS011;10347;51.828;6.466;2022-08-01T14:25:12;4.22;;;1.67;;
20375;SDS011;10347;51.828;6.466;2022-08-01T14:27:38;5.72;;;2.00;;
20375;SDS011;10347;51.828;6.466;2022-08-01T14:30:06;2.65;;;1.58;;
20375;SDS011;10347;51.828;6.466;2022-08-01T14:32:32;5.57;;;1.60;;
20375;SDS011;10347;51.828;6.466;2022-08-01T14:34:58;4.60;;;2.10;;
20375;SDS011;10347;51.828;6.466;2022-08-01T14:37:27;3.45;;;1.80;;
20375;SDS011;10347;51.828;6.466;2022-08-01T14:39:54;1.65;;;1.40;;
20375;SDS011;10347;51.828;6.466;2022-08-01T14:42:20;1.67;;;1.20;;
20375;SDS011;10347;51.828;6.466;2022-08-01T14:44:46;1.85;;;1.35;;
20375;SDS011;10347;51.828;6.466;2022-08-01T14:47:11;2.45;;;1.10;;
20375;SDS011;10347;51.828;6.466;2022-08-01T14:49:37;1.80;;;1.33;;
20375;SDS011;10347;51.828;6.466;2022-08-01T14:52:02;3.03;;;1.50;;
20375;SDS011;10347;51.828;6.466;2022-08-01T14:54:28;4.03;;;1.52;;
20375;SDS011;10347;51.828;6.466;2022-08-01T14:56:53;5.85;;;1.85;;
20375;SDS011;10347;51.828;6.466;2022-08-01T14:59:19;3.05;;;1.67;;
20375;SDS011;10347;51.828;6.466;2022-08-01T15:01:45;2.55;;;1.48;;
20375;SDS011;10347;51.828;6.466;2022-08-01T15:04:10;3.92;;;1.33;;
20375;SDS011;10347;51.828;6.466;2022-08-01T15:06:36;6.03;;;1.52;;
20375;SDS011;10347;51.828;6.466;2022-08-01T15:09:02;5.68;;;1.55;;
20375;SDS011;10347;51.828;6.466;2022-08-01T15:11:28;3.20;;;1.25;;
20375;SDS011;10347;51.828;6.466;2022-08-01T15:13:53;1.95;;;1.15;;
20375;SDS011;10347;51.828;6.466;2022-08-01T15:16:37;3.05;;;1.40;;
20375;SDS011;10347;51.828;6.466;2022-08-01T15:19:03;2.08;;;1.33;;
20375;SDS011;10347;51.828;6.466;2022-08-01T15:21:29;5.65;;;2.05;;
20375;SDS011;10347;51.828;6.466;2022-08-01T15:23:54;4.15;;;1.58;;
20375;SDS011;10347;51.828;6.466;2022-08-01T15:26:20;3.45;;;1.55;;
20375;SDS011;10347;51.828;6.466;2022-08-01T15:28:46;4.25;;;1.55;;
20375;SDS011;10347;51.828;6.466;2022-08-01T15:31:11;5.25;;;1.48;;
20375;SDS011;10347;51.828;6.466;2022-08-01T15:33:37;2.67;;;1.30;;
20375;SDS011;10347;51.828;6.466;2022-08-01T15:36:03;5.78;;;1.70;;
20375;SDS011;10347;51.828;6.466;2022-08-01T15:38:29;5.30;;;1.65;;
20375;SDS011;10347;51.828;6.466;2022-08-01T15:40:55;2.22;;;1.20;;
20375;SDS011;10347;51.828;6.466;2022-08-01T15:43:20;3.97;;;1.50;;